createdAt,value
2023-04-17T00:01:33.154Z,9.20
2023-04-17T00:03:41.413Z,9.30
2023-04-17T00:05:45.737Z,9.30
2023-04-17T00:07:49.345Z,9.30
2023-04-17T00:09:53.031Z,9.30
2023-04-17T00:11:56.643Z,9.30
2023-04-17T00:14:00.149Z,9.40
2023-04-17T00:16:03.961Z,9.10
2023-04-17T00:18:10.893Z,9.20
2023-04-17T00:20:14.278Z,9.10
2023-04-17T00:22:17.838Z,9.10
2023-04-17T00:24:21.845Z,9.30
2023-04-17T00:26:25.475Z,9.40
2023-04-17T00:28:29.362Z,9.30
2023-04-17T00:30:32.947Z,9.30
2023-04-17T00:32:38.752Z,9.30
2023-04-17T00:34:43.961Z,9.40
2023-04-17T00:36:47.510Z,9.30
2023-04-17T00:38:53.738Z,9.40
2023-04-17T00:40:57.271Z,9.40
2023-04-17T00:43:03.884Z,9.30
2023-04-17T00:45:11.529Z,9.30
2023-04-17T00:47:15.454Z,9.30
2023-04-17T00:49:19.217Z,9.30
2023-04-17T00:51:24.150Z,9.30
2023-04-17T00:53:27.601Z,9.40
2023-04-17T00:55:32.814Z,9.30
2023-04-17T00:57:36.230Z,9.20
2023-04-17T00:59:44.294Z,9.30
2023-04-17T01:01:47.661Z,9.30
2023-04-17T01:03:52.249Z,9.30
2023-04-17T01:05:56.189Z,9.20
2023-04-17T01:08:04.097Z,9.20
2023-04-17T01:10:08.866Z,9.30
2023-04-17T01:12:23.879Z,9.20
2023-04-17T01:14:27.430Z,9.20
2023-04-17T01:16:34.131Z,9.20
2023-04-17T01:18:37.495Z,9.30
2023-04-17T01:20:43.291Z,9.20
2023-04-17T01:22:50.150Z,9.10
2023-04-17T01:24:54.994Z,9.10
2023-04-17T01:26:58.434Z,9.00
2023-04-17T01:29:07.045Z,9.00
2023-04-17T01:31:10.807Z,8.90
2023-04-17T01:33:14.298Z,8.90
2023-04-17T01:35:17.756Z,8.80
2023-04-17T01:37:21.330Z,8.80
2023-04-17T01:39:27.728Z,8.70
2023-04-17T01:41:34.568Z,8.80
2023-04-17T01:43:42.272Z,8.80
2023-04-17T01:45:45.725Z,8.80
2023-04-17T01:47:52.406Z,8.80
2023-04-17T01:49:55.771Z,8.90
2023-04-17T01:51:59.165Z,8.90
2023-04-17T01:54:03.159Z,8.90
2023-04-17T01:56:07.132Z,9.00
2023-04-17T01:58:12.093Z,9.00
2023-04-17T02:00:16.986Z,9.00
2023-04-17T02:02:20.719Z,9.00
2023-04-17T02:04:24.572Z,9.00
2023-04-17T02:06:28.548Z,9.10
2023-04-17T02:08:31.887Z,9.10
2023-04-17T02:10:35.686Z,9.20
2023-04-17T02:12:39.127Z,9.20
2023-04-17T02:14:43.925Z,9.20
2023-04-17T02:16:47.394Z,9.20
2023-04-17T02:18:52.668Z,9.20
2023-04-17T02:20:56.334Z,9.30
2023-04-17T02:23:04.030Z,9.30
2023-04-17T02:25:08.207Z,9.30
2023-04-17T02:27:12.046Z,9.30
2023-04-17T02:29:15.438Z,9.20
2023-04-17T02:31:20.233Z,9.30
2023-04-17T02:33:23.986Z,9.30
2023-04-17T02:35:29.237Z,9.40
2023-04-17T02:37:32.812Z,9.30
2023-04-17T02:39:36.341Z,9.30
2023-04-17T02:41:42.872Z,9.30
2023-04-17T02:43:46.472Z,9.20
2023-04-17T02:45:50.070Z,9.30
2023-04-17T02:47:55.212Z,9.30
2023-04-17T02:50:00.356Z,9.40
2023-04-17T02:52:03.830Z,9.40
2023-04-17T02:54:07.405Z,9.40
2023-04-17T02:56:10.718Z,9.30
2023-04-17T02:58:14.522Z,9.30
2023-04-17T03:00:18.853Z,9.30
2023-04-17T03:02:22.600Z,9.30
2023-04-17T03:04:28.307Z,9.30
2023-04-17T03:06:34.378Z,9.30
2023-04-17T03:08:39.011Z,9.40
2023-04-17T03:10:51.588Z,9.40
2023-04-17T03:12:55.169Z,9.40
2023-04-17T03:14:59.992Z,9.40
2023-04-17T03:17:03.385Z,9.40
2023-04-17T03:19:07.505Z,9.40
2023-04-17T03:21:12.326Z,9.30
2023-04-17T03:23:15.800Z,9.40
2023-04-17T03:25:19.326Z,9.30
2023-04-17T03:27:24.769Z,9.40
2023-04-17T03:29:31.748Z,9.40
2023-04-17T03:31:35.566Z,9.40
2023-04-17T03:33:39.228Z,9.40
2023-04-17T03:35:42.732Z,9.40
2023-04-17T03:37:55.025Z,9.40
2023-04-17T03:40:00.966Z,9.40
2023-04-17T03:42:04.984Z,9.40
2023-04-17T03:44:09.090Z,9.50
2023-04-17T03:46:12.716Z,9.50
2023-04-17T03:48:16.282Z,9.40
2023-04-17T03:50:22.866Z,9.50
2023-04-17T03:52:26.650Z,9.50
2023-04-17T03:54:35.677Z,9.40
2023-04-17T03:56:39.397Z,9.40
2023-04-17T03:58:43.272Z,9.50
2023-04-17T04:00:48.560Z,9.40
2023-04-17T04:02:52.117Z,9.50
2023-04-17T04:04:58.337Z,9.50
2023-04-17T04:07:06.575Z,9.50
2023-04-17T04:09:10.683Z,9.40
2023-04-17T04:11:15.833Z,9.40
2023-04-17T04:13:19.227Z,9.50
2023-04-17T04:15:22.617Z,9.50
2023-04-17T04:17:26.400Z,9.50
2023-04-17T04:19:30.088Z,9.50
2023-04-17T04:21:36.112Z,9.50
2023-04-17T04:23:41.522Z,9.50
2023-04-17T04:25:44.894Z,9.50
2023-04-17T04:27:51.024Z,9.40
2023-04-17T04:29:58.862Z,9.50
2023-04-17T04:32:02.682Z,9.50
2023-04-17T04:34:08.004Z,9.50
2023-04-17T04:36:14.058Z,9.60
2023-04-17T04:38:17.755Z,9.50
2023-04-17T04:40:21.526Z,9.50
2023-04-17T04:42:25.175Z,9.60
2023-04-17T04:44:29.941Z,9.60
2023-04-17T04:46:34.322Z,9.60
2023-04-17T04:48:38.643Z,9.70
2023-04-17T04:50:43.599Z,9.70
2023-04-17T04:52:46.897Z,9.60
2023-04-17T04:54:50.487Z,9.60
2023-04-17T04:56:54.009Z,9.60
2023-04-17T04:58:57.503Z,9.60
2023-04-17T05:01:02.382Z,9.60
2023-04-17T05:03:06.677Z,9.70
2023-04-17T05:05:11.258Z,9.70
2023-04-17T05:07:15.032Z,9.70
2023-04-17T05:09:18.878Z,9.70
2023-04-17T05:11:22.459Z,9.80
2023-04-17T05:13:25.845Z,9.80
2023-04-17T05:15:29.347Z,9.80
2023-04-17T05:17:34.032Z,9.80
2023-04-17T05:19:38.014Z,9.90
2023-04-17T05:21:47.086Z,9.80
2023-04-17T05:23:51.089Z,9.80
2023-04-17T05:25:54.406Z,9.80
2023-04-17T05:27:57.673Z,9.90
2023-04-17T05:30:02.528Z,9.90
2023-04-17T05:32:06.176Z,9.90
2023-04-17T05:34:11.145Z,9.80
2023-04-17T05:36:15.335Z,9.90
2023-04-17T05:38:19.163Z,9.90
2023-04-17T05:40:23.253Z,9.90
2023-04-17T05:42:27.051Z,9.80
2023-04-17T05:44:30.868Z,9.90
2023-04-17T05:46:34.554Z,10.00
2023-04-17T05:48:37.957Z,10.00
2023-04-17T05:50:43.392Z,10.00
2023-04-17T05:52:48.956Z,10.00
2023-04-17T05:54:52.528Z,10.00
2023-04-17T05:56:56.539Z,10.00
2023-04-17T05:59:00.234Z,10.00
2023-04-17T06:01:06.153Z,10.00
2023-04-17T06:03:09.882Z,10.00
2023-04-17T06:05:13.628Z,10.00
2023-04-17T06:07:18.875Z,10.00
2023-04-17T06:09:23.524Z,10.10
2023-04-17T06:11:28.709Z,10.10
2023-04-17T06:13:32.310Z,10.10
2023-04-17T06:15:35.584Z,10.10
2023-04-17T06:17:39.239Z,10.20
2023-04-17T06:19:42.552Z,10.30
2023-04-17T06:21:46.384Z,10.30
2023-04-17T06:23:54.047Z,10.30
2023-04-17T06:25:57.879Z,10.40
2023-04-17T06:28:01.726Z,10.50
2023-04-17T06:30:05.785Z,10.40
2023-04-17T06:32:09.383Z,10.40
2023-04-17T06:34:16.128Z,10.50
2023-04-17T06:36:20.037Z,10.50
2023-04-17T06:38:23.426Z,10.50
2023-04-17T06:40:28.265Z,10.50
2023-04-17T06:42:33.971Z,10.60
2023-04-17T06:44:37.355Z,10.70
2023-04-17T06:46:40.937Z,10.80
2023-04-17T06:48:44.278Z,10.70
2023-04-17T06:50:48.080Z,10.80
2023-04-17T06:52:51.609Z,10.90
2023-04-17T06:54:56.074Z,11.00
2023-04-17T06:57:02.165Z,10.90
2023-04-17T06:59:05.542Z,11.00
2023-04-17T07:01:08.982Z,11.20
2023-04-17T07:03:14.010Z,11.30
2023-04-17T07:05:17.661Z,11.30
2023-04-17T07:07:21.285Z,11.50
2023-04-17T07:09:25.323Z,11.30
2023-04-17T07:11:28.912Z,11.50
2023-04-17T07:13:34.538Z,11.70
2023-04-17T07:15:37.929Z,11.60
2023-04-17T07:17:42.252Z,11.60
2023-04-17T07:19:45.471Z,11.50
2023-04-17T07:21:49.030Z,11.60
2023-04-17T07:23:52.425Z,11.70
2023-04-17T07:25:55.948Z,11.70
2023-04-17T07:27:59.376Z,11.70
2023-04-17T07:30:04.847Z,11.80
2023-04-17T07:32:08.229Z,12.00
2023-04-17T07:34:12.188Z,12.30
2023-04-17T07:36:15.837Z,12.40
2023-04-17T07:38:19.333Z,12.40
2023-04-17T07:40:22.876Z,12.60
2023-04-17T07:42:26.158Z,12.60
2023-04-17T07:44:29.382Z,12.60
2023-04-17T07:46:34.151Z,12.50
2023-04-17T07:48:37.562Z,12.60
2023-04-17T07:50:40.766Z,12.50
2023-04-17T07:52:44.283Z,12.60
2023-04-17T07:54:47.688Z,12.50
2023-04-17T07:56:51.079Z,12.50
2023-04-17T07:58:54.373Z,12.50
2023-04-17T08:00:57.959Z,12.60
2023-04-17T08:03:03.238Z,12.90
2023-04-17T08:05:08.272Z,12.90
2023-04-17T08:07:12.755Z,13.00
2023-04-17T08:09:16.324Z,12.90
2023-04-17T08:11:19.851Z,12.90
2023-04-17T08:13:23.184Z,13.00
2023-04-17T08:15:26.722Z,13.00
2023-04-17T08:17:30.855Z,13.00
2023-04-17T08:19:35.814Z,12.80
2023-04-17T08:21:39.004Z,13.00
2023-04-17T08:23:42.353Z,12.70
2023-04-17T08:25:46.452Z,12.80
2023-04-17T08:27:49.844Z,12.90
2023-04-17T08:29:53.875Z,12.80
2023-04-17T08:32:12.779Z,13.00
2023-04-17T08:34:17.057Z,13.00
2023-04-17T08:36:22.161Z,13.00
2023-04-17T08:38:27.522Z,13.00
2023-04-17T08:40:30.933Z,12.90
2023-04-17T08:42:37.302Z,12.90
2023-04-17T08:44:40.845Z,12.90
2023-04-17T08:46:44.665Z,12.90
2023-04-17T08:48:47.986Z,13.00
2023-04-17T08:50:55.386Z,13.10
2023-04-17T08:52:59.943Z,13.20
2023-04-17T08:55:03.636Z,13.10
2023-04-17T08:57:07.505Z,13.10
2023-04-17T08:59:11.106Z,13.40
2023-04-17T09:01:16.784Z,13.60
2023-04-17T09:03:20.841Z,13.80
2023-04-17T09:05:25.002Z,13.90
2023-04-17T09:07:31.042Z,14.00
2023-04-17T09:09:51.703Z,13.90
2023-04-17T09:12:10.534Z,13.60
2023-04-17T09:14:31.051Z,13.60
2023-04-17T09:16:35.319Z,13.90
2023-04-17T09:18:39.444Z,14.10
2023-04-17T09:20:51.490Z,14.10
2023-04-17T09:23:02.764Z,14.30
2023-04-17T09:25:17.991Z,14.30
2023-04-17T09:27:22.764Z,14.50
2023-04-17T09:29:27.166Z,14.60
2023-04-17T09:31:36.367Z,14.80
2023-04-17T09:33:57.812Z,15.50
2023-04-17T09:36:22.482Z,16.10
2023-04-17T09:38:38.210Z,16.80
2023-04-17T09:40:45.311Z,17.00
2023-04-17T09:42:59.599Z,17.80
2023-04-17T09:45:22.625Z,17.70
2023-04-17T09:47:26.140Z,17.70
2023-04-17T09:49:35.122Z,18.00
2023-04-17T09:51:41.198Z,18.60
2023-04-17T09:53:44.905Z,19.30
2023-04-17T09:55:53.465Z,20.20
2023-04-17T09:57:58.396Z,20.30
2023-04-17T10:00:05.198Z,20.60
2023-04-17T10:02:10.130Z,20.80
2023-04-17T10:04:14.212Z,20.90
2023-04-17T10:06:18.067Z,20.00
2023-04-17T10:08:21.753Z,19.60
2023-04-17T10:10:27.339Z,19.40
2023-04-17T10:12:34.326Z,18.70
2023-04-17T10:14:42.730Z,18.40
2023-04-17T10:16:48.235Z,18.10
2023-04-17T10:19:28.471Z,18.10
2023-04-17T10:21:32.034Z,17.40
2023-04-17T10:23:36.613Z,16.90
2023-04-17T10:25:40.274Z,17.10
2023-04-17T10:27:56.040Z,17.40
2023-04-17T10:30:01.644Z,18.30
2023-04-17T10:32:28.635Z,18.00
2023-04-17T10:34:40.482Z,17.70
2023-04-17T10:36:52.381Z,18.10
2023-04-17T10:39:14.458Z,17.90
2023-04-17T10:41:18.566Z,17.40
2023-04-17T10:43:23.708Z,16.90
2023-04-17T10:45:27.026Z,17.00
2023-04-17T10:47:35.149Z,17.00
2023-04-17T10:49:50.269Z,16.60
2023-04-17T10:51:53.660Z,16.90
2023-04-17T10:53:57.976Z,16.70
2023-04-17T10:56:01.882Z,16.70
2023-04-17T10:58:15.053Z,16.80
2023-04-17T11:00:22.078Z,16.60
2023-04-17T11:02:35.669Z,16.40
2023-04-17T11:04:39.148Z,16.20
2023-04-17T11:06:43.751Z,15.90
2023-04-17T11:08:49.119Z,15.60
2023-04-17T11:10:54.874Z,15.70
2023-04-17T11:13:01.385Z,15.60
2023-04-17T11:15:05.532Z,15.30
2023-04-17T11:17:11.208Z,15.20
2023-04-17T11:19:19.457Z,15.20
2023-04-17T11:21:22.908Z,15.40
2023-04-17T11:23:33.509Z,15.50
2023-04-17T11:25:37.935Z,15.70
2023-04-17T11:27:41.666Z,15.80
2023-04-17T11:29:46.771Z,15.40
2023-04-17T11:31:52.150Z,15.30
2023-04-17T11:34:01.410Z,15.50
2023-04-17T11:36:07.384Z,15.60
2023-04-17T11:38:18.046Z,15.60
2023-04-17T11:40:24.223Z,15.70
2023-04-17T11:42:28.335Z,15.80
2023-04-17T11:44:32.026Z,16.00
2023-04-17T11:46:36.034Z,16.40
2023-04-17T11:48:39.445Z,16.30
2023-04-17T11:50:45.692Z,16.30
2023-04-17T11:52:49.276Z,16.40
2023-04-17T11:54:59.367Z,16.30
2023-04-17T11:57:03.574Z,16.20
2023-04-17T11:59:07.028Z,16.00
2023-04-17T12:01:10.623Z,16.30
2023-04-17T12:03:35.533Z,16.70
2023-04-17T12:05:39.656Z,16.90
2023-04-17T12:07:44.859Z,17.00
2023-04-17T12:09:56.652Z,16.70
2023-04-17T12:12:01.688Z,16.60
2023-04-17T12:14:05.804Z,16.30
2023-04-17T12:16:31.565Z,16.00
2023-04-17T12:18:35.407Z,16.00
2023-04-17T12:20:39.413Z,16.10
2023-04-17T12:22:44.364Z,16.10
2023-04-17T12:24:48.055Z,16.30
2023-04-17T12:26:52.612Z,16.20
2023-04-17T12:28:58.125Z,16.20
2023-04-17T12:31:02.024Z,16.00
2023-04-17T12:33:06.874Z,16.00
2023-04-17T12:35:11.252Z,15.70
2023-04-17T12:37:14.554Z,15.80
2023-04-17T12:39:19.574Z,15.90
2023-04-17T12:41:25.528Z,15.70
2023-04-17T12:43:29.449Z,15.60
2023-04-17T12:45:33.696Z,15.70
2023-04-17T12:47:37.373Z,15.60
2023-04-17T12:49:40.746Z,15.40
2023-04-17T12:51:44.220Z,15.20
2023-04-17T12:53:47.924Z,15.10
2023-04-17T12:55:52.962Z,15.00
2023-04-17T12:57:56.521Z,14.80
2023-04-17T12:59:59.841Z,15.10
2023-04-17T13:02:03.854Z,15.00
2023-04-17T13:04:07.781Z,15.10
2023-04-17T13:06:16.475Z,15.20
2023-04-17T13:08:21.095Z,15.10
2023-04-17T13:10:25.298Z,15.30
2023-04-17T13:12:30.895Z,15.30
2023-04-17T13:14:34.410Z,15.30
2023-04-17T13:16:37.885Z,15.50
2023-04-17T13:18:41.843Z,15.50
2023-04-17T13:20:45.579Z,15.20
2023-04-17T13:22:49.512Z,15.20
2023-04-17T13:24:54.122Z,15.10
2023-04-17T13:26:59.406Z,15.30
2023-04-17T13:29:05.663Z,15.10
2023-04-17T13:31:09.201Z,15.00
2023-04-17T13:33:12.859Z,15.00
2023-04-17T13:35:16.274Z,15.20
2023-04-17T13:37:19.955Z,15.20
2023-04-17T13:39:23.751Z,15.30
2023-04-17T13:41:27.163Z,15.10
2023-04-17T13:43:30.483Z,15.20
2023-04-17T13:45:35.486Z,15.10
2023-04-17T13:47:39.136Z,15.40
2023-04-17T13:49:45.270Z,15.40
2023-04-17T13:51:49.165Z,15.50
2023-04-17T13:53:52.520Z,15.80
2023-04-17T13:55:56.047Z,15.90
2023-04-17T13:57:59.605Z,15.80
2023-04-17T14:00:03.872Z,15.90
2023-04-17T14:02:09.382Z,15.80
2023-04-17T14:04:13.464Z,15.70
2023-04-17T14:06:18.811Z,15.70
2023-04-17T14:08:22.619Z,15.80
2023-04-17T14:10:26.731Z,15.60
2023-04-17T14:12:30.324Z,15.20
2023-04-17T14:14:36.361Z,15.20
2023-04-17T14:16:40.543Z,15.50
2023-04-17T14:18:47.257Z,15.70
2023-04-17T14:20:52.812Z,15.70
2023-04-17T14:22:56.298Z,15.60
2023-04-17T14:24:59.897Z,15.70
2023-04-17T14:27:03.738Z,15.80
2023-04-17T14:29:07.304Z,15.90
2023-04-17T14:31:11.148Z,16.10
2023-04-17T14:33:15.016Z,16.30
2023-04-17T14:35:20.289Z,16.70
2023-04-17T14:37:24.001Z,17.30
2023-04-17T14:39:28.879Z,17.20
2023-04-17T14:41:36.505Z,17.40
2023-04-17T14:43:39.953Z,17.50
2023-04-17T14:45:44.167Z,18.00
2023-04-17T14:47:47.730Z,18.30
2023-04-17T14:49:51.885Z,18.50
2023-04-17T14:51:56.925Z,18.60
2023-04-17T14:54:00.751Z,18.00
2023-04-17T14:56:04.812Z,18.20
2023-04-17T14:58:08.116Z,17.60
2023-04-17T15:00:12.440Z,17.70
2023-04-17T15:02:18.238Z,17.50
2023-04-17T15:04:22.462Z,17.30
2023-04-17T15:06:26.029Z,17.10
2023-04-17T15:08:31.410Z,17.00
2023-04-17T15:10:47.993Z,16.80
2023-04-17T15:12:59.780Z,16.80
2023-04-17T15:15:03.466Z,16.80
2023-04-17T15:17:07.091Z,16.60
2023-04-17T15:19:11.022Z,16.50
2023-04-17T15:21:15.926Z,16.60
2023-04-17T15:23:19.221Z,16.50
2023-04-17T15:25:24.744Z,16.50
2023-04-17T15:27:28.190Z,16.30
2023-04-17T15:29:31.600Z,16.30
2023-04-17T15:31:35.079Z,16.30
2023-04-17T15:33:38.963Z,16.20
2023-04-17T15:35:42.316Z,16.10
2023-04-17T15:37:45.493Z,16.30
2023-04-17T15:39:49.019Z,16.30
2023-04-17T15:41:54.135Z,16.20
2023-04-17T15:43:57.675Z,16.10
2023-04-17T15:46:03.720Z,16.10
2023-04-17T15:48:07.148Z,16.00
2023-04-17T15:50:14.651Z,16.00
2023-04-17T15:52:18.227Z,16.00
2023-04-17T15:54:26.384Z,15.90
2023-04-17T15:56:33.399Z,15.70
2023-04-17T15:58:41.834Z,15.60
2023-04-17T16:00:45.666Z,15.40
2023-04-17T16:02:49.835Z,15.60
2023-04-17T16:04:53.594Z,15.70
2023-04-17T16:06:57.077Z,15.70
2023-04-17T16:09:03.614Z,15.70
2023-04-17T16:11:07.652Z,15.70
2023-04-17T16:13:11.358Z,15.70
2023-04-17T16:15:17.968Z,15.60
2023-04-17T16:17:22.069Z,15.40
2023-04-17T16:19:26.227Z,15.40
2023-04-17T16:21:29.632Z,15.50
2023-04-17T16:23:33.080Z,15.50
2023-04-17T16:25:36.508Z,15.60
2023-04-17T16:27:40.506Z,15.40
2023-04-17T16:29:44.206Z,15.30
2023-04-17T16:31:49.300Z,15.30
2023-04-17T16:33:52.960Z,15.00
2023-04-17T16:35:57.287Z,14.90
2023-04-17T16:38:01.543Z,14.90
2023-04-17T16:40:05.962Z,14.70
2023-04-17T16:42:09.761Z,14.70
2023-04-17T16:44:13.377Z,14.70
2023-04-17T16:46:23.842Z,14.80
2023-04-17T16:48:29.547Z,14.80
2023-04-17T16:50:33.053Z,14.90
2023-04-17T16:52:36.545Z,14.80
2023-04-17T16:54:39.778Z,14.70
2023-04-17T16:56:43.313Z,14.90
2023-04-17T16:58:46.775Z,14.70
2023-04-17T17:00:50.110Z,14.40
2023-04-17T17:02:53.762Z,14.30
2023-04-17T17:04:58.900Z,14.20
2023-04-17T17:07:03.390Z,14.10
2023-04-17T17:09:06.725Z,14.00
2023-04-17T17:11:10.097Z,13.80
2023-04-17T17:13:14.836Z,13.90
2023-04-17T17:15:20.722Z,13.90
2023-04-17T17:17:27.207Z,13.80
2023-04-17T17:19:30.993Z,13.70
2023-04-17T17:21:36.502Z,13.60
2023-04-17T17:23:40.005Z,13.70
2023-04-17T17:25:44.482Z,13.60
2023-04-17T17:27:48.035Z,13.50
2023-04-17T17:29:51.415Z,13.40
2023-04-17T17:31:55.369Z,13.30
2023-04-17T17:34:11.759Z,13.30
2023-04-17T17:36:26.444Z,13.40
2023-04-17T17:38:32.853Z,13.30
2023-04-17T17:40:37.159Z,13.20
2023-04-17T17:42:40.462Z,13.10
2023-04-17T17:44:44.004Z,13.10
2023-04-17T17:46:47.416Z,12.90
2023-04-17T17:48:53.261Z,13.10
2023-04-17T17:50:57.485Z,12.90
2023-04-17T17:53:01.073Z,13.00
2023-04-17T17:55:06.607Z,13.00
2023-04-17T17:57:10.062Z,13.00
2023-04-17T17:59:13.814Z,13.00
2023-04-17T18:01:17.366Z,12.90
2023-04-17T18:03:21.316Z,12.90
2023-04-17T18:05:25.000Z,12.80
2023-04-17T18:07:28.292Z,12.70
2023-04-17T18:09:31.577Z,12.70
2023-04-17T18:11:37.464Z,12.60
2023-04-17T18:13:40.753Z,12.40
2023-04-17T18:15:44.594Z,12.20
2023-04-17T18:17:48.273Z,12.20
2023-04-17T18:19:51.718Z,11.80
2023-04-17T18:21:55.024Z,11.70
2023-04-17T18:23:58.442Z,11.70
2023-04-17T18:26:02.718Z,11.70
2023-04-17T18:28:08.493Z,11.60
2023-04-17T18:30:12.809Z,11.30
2023-04-17T18:32:16.468Z,11.40
2023-04-17T18:34:23.287Z,11.40
2023-04-17T18:36:26.914Z,11.30
2023-04-17T18:38:30.546Z,11.30
2023-04-17T18:40:36.424Z,11.40
2023-04-17T18:42:39.834Z,11.50
2023-04-17T18:44:44.740Z,11.50
2023-04-17T18:46:48.956Z,11.70
2023-04-17T18:48:52.425Z,11.60
2023-04-17T18:50:55.816Z,11.60
2023-04-17T18:52:59.233Z,11.70
2023-04-17T18:55:02.938Z,11.70
2023-04-17T18:57:06.296Z,11.70
2023-04-17T18:59:09.699Z,11.80
2023-04-17T19:01:14.494Z,11.80
2023-04-17T19:03:18.073Z,11.70
2023-04-17T19:05:21.608Z,11.70
2023-04-17T19:07:26.257Z,11.70
2023-04-17T19:09:30.202Z,11.60
2023-04-17T19:11:33.939Z,11.50
2023-04-17T19:13:37.516Z,11.60
2023-04-17T19:15:41.649Z,11.40
2023-04-17T19:17:46.450Z,11.40
2023-04-17T19:19:50.180Z,11.40
2023-04-17T19:21:53.795Z,11.40
2023-04-17T19:23:57.185Z,11.40
2023-04-17T19:26:00.551Z,11.40
2023-04-17T19:28:04.050Z,11.40
2023-04-17T19:30:09.630Z,11.50
2023-04-17T19:32:13.532Z,11.60
2023-04-17T19:34:18.187Z,11.70
2023-04-17T19:36:21.778Z,11.60
2023-04-17T19:38:25.437Z,11.60
2023-04-17T19:40:28.981Z,11.50
2023-04-17T19:42:32.255Z,11.60
2023-04-17T19:44:35.617Z,11.50
2023-04-17T19:46:39.119Z,11.50
2023-04-17T19:48:43.794Z,11.40
2023-04-17T19:50:48.697Z,11.50
2023-04-17T19:52:52.091Z,11.80
2023-04-17T19:54:55.326Z,11.90
2023-04-17T19:56:58.632Z,11.80
2023-04-17T19:59:03.517Z,11.80
2023-04-17T20:01:06.966Z,11.70
2023-04-17T20:03:10.466Z,11.70
2023-04-17T20:05:14.346Z,11.60
2023-04-17T20:07:18.952Z,11.60
2023-04-17T20:09:22.558Z,11.60
2023-04-17T20:11:26.176Z,11.50
2023-04-17T20:13:29.486Z,11.30
2023-04-17T20:15:32.983Z,11.40
2023-04-17T20:17:36.754Z,11.50
2023-04-17T20:19:40.232Z,11.50
2023-04-17T20:21:44.052Z,11.40
2023-04-17T20:23:49.069Z,11.40
2023-04-17T20:25:52.575Z,11.50
2023-04-17T20:27:56.618Z,11.50
2023-04-17T20:29:59.869Z,11.30
2023-04-17T20:32:04.091Z,11.20
2023-04-17T20:34:07.493Z,11.20
2023-04-17T20:36:11.308Z,11.30
2023-04-17T20:38:14.871Z,11.30
2023-04-17T20:40:19.684Z,11.20
2023-04-17T20:42:23.188Z,11.20
2023-04-17T20:44:26.649Z,11.30
2023-04-17T20:46:30.587Z,11.40
2023-04-17T20:48:34.278Z,11.40
2023-04-17T20:50:37.681Z,11.50
2023-04-17T20:52:41.054Z,11.50
2023-04-17T20:54:44.599Z,11.40
2023-04-17T20:56:49.298Z,11.50
2023-04-17T20:58:52.867Z,11.60
2023-04-17T21:01:01.088Z,11.70
2023-04-17T21:03:05.705Z,11.60
2023-04-17T21:05:10.317Z,11.50
2023-04-17T21:07:13.998Z,11.50
2023-04-17T21:09:18.153Z,11.50
2023-04-17T21:11:22.677Z,11.40
2023-04-17T21:13:27.901Z,11.30
2023-04-17T21:15:31.482Z,11.40
2023-04-17T21:17:35.161Z,11.30
2023-04-17T21:19:38.774Z,11.30
2023-04-17T21:21:44.630Z,11.30
2023-04-17T21:23:48.129Z,11.30
2023-04-17T21:25:53.721Z,11.40
2023-04-17T21:27:57.271Z,11.40
2023-04-17T21:30:04.958Z,11.40
2023-04-17T21:32:08.810Z,11.40
2023-04-17T21:34:12.636Z,11.40
2023-04-17T21:36:16.977Z,11.30
2023-04-17T21:38:20.371Z,11.30
2023-04-17T21:40:31.012Z,11.30
2023-04-17T21:42:36.681Z,11.30
2023-04-17T21:44:40.090Z,11.30
2023-04-17T21:46:47.555Z,11.40
2023-04-17T21:48:50.991Z,11.40
2023-04-17T21:51:02.402Z,11.40
2023-04-17T21:53:05.741Z,11.30
2023-04-17T21:55:10.045Z,11.20
2023-04-17T21:57:13.461Z,11.30
2023-04-17T21:59:16.825Z,11.10
2023-04-17T22:01:20.321Z,11.20
2023-04-17T22:03:25.261Z,11.30
2023-04-17T22:05:28.933Z,11.20
2023-04-17T22:07:47.249Z,11.30
2023-04-17T22:09:55.307Z,11.30
2023-04-17T22:11:58.818Z,11.40
2023-04-17T22:14:02.204Z,11.30
2023-04-17T22:16:05.720Z,11.20
2023-04-17T22:18:09.226Z,11.10
2023-04-17T22:20:14.505Z,11.20
2023-04-17T22:22:18.041Z,11.10
2023-04-17T22:24:21.336Z,11.10
2023-04-17T22:26:26.945Z,11.00
2023-04-17T22:28:31.786Z,11.00
2023-04-17T22:30:35.144Z,11.20
2023-04-17T22:32:38.484Z,11.10
2023-04-17T22:34:42.641Z,11.10
2023-04-17T22:36:47.314Z,11.10
2023-04-17T22:38:50.566Z,11.20
2023-04-17T22:40:54.368Z,11.10
2023-04-17T22:42:58.076Z,11.00
2023-04-17T22:45:01.481Z,11.10
2023-04-17T22:47:05.078Z,11.00
2023-04-17T22:49:08.453Z,11.00
2023-04-17T22:51:12.786Z,11.10
2023-04-17T22:53:17.673Z,11.10
2023-04-17T22:55:21.193Z,11.00
2023-04-17T22:57:24.794Z,10.90
2023-04-17T22:59:28.261Z,10.90
2023-04-17T23:01:31.793Z,10.90
2023-04-17T23:03:36.162Z,10.80
2023-04-17T23:05:39.577Z,10.60
2023-04-17T23:07:43.074Z,10.50
2023-04-17T23:09:48.491Z,10.60
2023-04-17T23:11:51.992Z,10.50
2023-04-17T23:13:56.219Z,10.40
2023-04-17T23:16:00.080Z,10.40
2023-04-17T23:18:03.544Z,10.20
2023-04-17T23:20:08.015Z,10.20
2023-04-17T23:22:11.951Z,10.10
2023-04-17T23:24:15.828Z,9.90
2023-04-17T23:26:20.955Z,9.80
2023-04-17T23:28:30.431Z,9.90
2023-04-17T23:30:33.710Z,9.70
2023-04-17T23:32:37.148Z,9.60
2023-04-17T23:34:40.620Z,9.50
2023-04-17T23:36:44.104Z,9.50
2023-04-17T23:38:47.353Z,9.50
2023-04-17T23:40:50.668Z,9.40
2023-04-17T23:42:55.900Z,9.20
2023-04-17T23:44:59.297Z,9.20
2023-04-17T23:47:03.516Z,9.10
2023-04-17T23:49:07.029Z,8.90
2023-04-17T23:51:10.596Z,9.00
2023-04-17T23:53:14.208Z,8.90
2023-04-17T23:55:17.873Z,9.00
2023-04-17T23:57:21.123Z,8.80
2023-04-17T23:59:25.859Z,8.80
